Aérodrome :
LOGIN :

S'inscrire | Disclaimer

   EN    FR    IT 

 










Légende :    VFR   VFR Marginal   IFR   IFR Intensif   IFR Très Intensif
Visi : 
Plafond : 
>= 8 km
>= 3000ft
5 à 8 km
1000 à 3000 ft
1500m à 5 km
500 à 1000 ft
800 à 1500m
200 à 500 ft
< 800m
< 200 ft
Symboles :   Orages  Brouillard  Fortes neiges  Fortes précipitations  Vent > 20 kt
SIGMETs :   Divers  Orages  Givrage  Turbulence  Onde Orograph.  Cendres Volcan.







- Altitude de l'aérodrome : 53 ft
- Code IATA : HAM


EDDH - Hamburg

DERNIER METAR :
  • 230450Z 25003KT CAVOK 08/07 Q1018 NOSIG

METARs EXPIRÉS :
  • 230420Z VRB02KT 9999 2400NW BCFG NSC 06/06 Q1018 NOSIG
  • 230350Z VRB01KT 9999 2400NW R15/0450N BCFG NSC 05/05 Q1018 NOSIG
  • 230320Z 19001KT 9999 2400NW R15/0400V0600D BCFG NSC 05/05 Q1018 TEMPO 2000
  • 230250Z 22001KT 9999 2400NW R15/0450V0650D BCFG NSC 06/06 Q1018 TEMPO 2000
  • 230220Z VRB01KT CAVOK 07/06 Q1018 TEMPO 2000 BCFG

TAF TAF EDDH
Valide du 23 à 00h jusqu'au 24 à 06h UTC


222300Z 2300/2406 25003KT CAVOK
PROB30
TEMPO 2301/2305 2000 BCFG
BECMG 2307/2309 24008KT
BECMG 2316/2318 18006KT
BECMG 2400/2402 24004KT
Pas de NOTAMs connus pour ce terrain.



MET'MAP, la Météo Aéronautique d'un coup d'oeil ! - Copyright ORBIFLY Décembre 2007 - Disclaimer

ORBIFLY MET'MAP TEAM :

Programmation & Développement : Alexandra Zaïnal
Conception & Développement : Baudouin d'Aumeries
Co-Programmation & Développement : Marc-Olivier Méhu
Soutien technique & logistique : Manuel Goepfert

Contact : metmap@orbifly.com




SOURCES & CREDITS :

   NOAA